sensor_id;sensor_type;location;lat;lon;timestamp;pressure;altitude;pressure_sealevel;temperature;humidity
17772;BME280;9010;32.624;-96.938;2022-08-11T00:01:52;99376.72;;;29.08;100.00
17772;BME280;9010;32.624;-96.938;2022-08-11T00:04:23;99370.69;;;29.06;100.00
17772;BME280;9010;32.624;-96.938;2022-08-11T00:06:52;99367.31;;;29.04;100.00
17772;BME280;9010;32.624;-96.938;2022-08-11T00:09:30;99375.03;;;29.07;100.00
17772;BME280;9010;32.624;-96.938;2022-08-11T00:12:00;99379.19;;;29.03;100.00
17772;BME280;9010;32.624;-96.938;2022-08-11T00:14:32;99377.50;;;29.02;100.00
17772;BME280;9010;32.624;-96.938;2022-08-11T00:17:02;99379.44;;;29.08;100.00
17772;BME280;9010;32.624;-96.938;2022-08-11T00:19:33;99372.34;;;29.07;100.00
17772;BME280;9010;32.624;-96.938;2022-08-11T00:22:03;99371.59;;;28.92;100.00
17772;BME280;9010;32.624;-96.938;2022-08-11T00:24:33;99356.47;;;28.62;100.00
17772;BME280;9010;32.624;-96.938;2022-08-11T00:27:04;99349.63;;;28.44;100.00
17772;BME280;9010;32.624;-96.938;2022-08-11T00:29:33;99339.94;;;28.35;100.00
17772;BME280;9010;32.624;-96.938;2022-08-11T00:32:03;99328.34;;;28.20;100.00
17772;BME280;9010;32.624;-96.938;2022-08-11T00:34:35;99319.97;;;28.15;100.00
17772;BME280;9010;32.624;-96.938;2022-08-11T00:37:06;99308.22;;;28.08;100.00
17772;BME280;9010;32.624;-96.938;2022-08-11T00:39:44;99302.25;;;27.98;100.00
17772;BME280;9010;32.624;-96.938;2022-08-11T00:42:25;99297.41;;;27.93;100.00
17772;BME280;9010;32.624;-96.938;2022-08-11T00:45:02;99292.59;;;27.89;100.00
17772;BME280;9010;32.624;-96.938;2022-08-11T00:47:47;99285.03;;;27.84;100.00
17772;BME280;9010;32.624;-96.938;2022-08-11T00:50:28;99276.09;;;27.84;100.00
17772;BME280;9010;32.624;-96.938;2022-08-11T00:53:15;99271.25;;;27.79;100.00
17772;BME280;9010;32.624;-96.938;2022-08-11T00:59:33;99251.44;;;27.72;100.00
17772;BME280;9010;32.624;-96.938;2022-08-11T01:02:17;99245.19;;;27.72;100.00
17772;BME280;9010;32.624;-96.938;2022-08-11T01:05:06;99240.91;;;27.63;100.00
17772;BME280;9010;32.624;-96.938;2022-08-11T01:11:28;99221.16;;;27.62;100.00
17772;BME280;9010;32.624;-96.938;2022-08-11T01:20:14;99170.78;;;27.40;100.00
17772;BME280;9010;32.624;-96.938;2022-08-11T01:26:27;99151.72;;;27.42;100.00
17772;BME280;9010;32.624;-96.938;2022-08-11T01:29:39;99148.19;;;27.41;100.00
17772;BME280;9010;32.624;-96.938;2022-08-11T01:36:09;99144.53;;;27.49;100.00
17772;BME280;9010;32.624;-96.938;2022-08-11T01:42:42;99153.84;;;27.46;100.00
17772;BME280;9010;32.624;-96.938;2022-08-11T01:45:36;99172.16;;;27.51;100.00
17772;BME280;9010;32.624;-96.938;2022-08-11T01:48:15;99184.97;;;27.78;100.00
17772;BME280;9010;32.624;-96.938;2022-08-11T01:51:04;99193.34;;;27.83;100.00
17772;BME280;9010;32.624;-96.938;2022-08-11T01:53:47;99191.91;;;27.66;100.00
17772;BME280;9010;32.624;-96.938;2022-08-11T01:56:45;99195.84;;;27.49;100.00
17772;BME280;9010;32.624;-96.938;2022-08-11T01:59:18;99194.25;;;27.54;100.00
17772;BME280;9010;32.624;-96.938;2022-08-11T02:02:17;99193.41;;;27.54;100.00
17772;BME280;9010;32.624;-96.938;2022-08-11T02:05:19;99188.97;;;27.46;100.00
17772;BME280;9010;32.624;-96.938;2022-08-11T02:07:58;99179.06;;;27.38;100.00
17772;BME280;9010;32.624;-96.938;2022-08-11T02:10:34;99153.94;;;27.23;100.00
17772;BME280;9010;32.624;-96.938;2022-08-11T02:13:33;99169.88;;;27.33;100.00
17772;BME280;9010;32.624;-96.938;2022-08-11T02:16:32;99181.09;;;27.36;100.00
17772;BME280;9010;32.624;-96.938;2022-08-11T02:19:11;99172.84;;;27.38;100.00
17772;BME280;9010;32.624;-96.938;2022-08-11T02:22:05;99173.59;;;27.32;100.00
17772;BME280;9010;32.624;-96.938;2022-08-11T02:25:00;99191.91;;;27.36;100.00
17772;BME280;9010;32.624;-96.938;2022-08-11T02:27:37;99207.75;;;27.39;100.00
17772;BME280;9010;32.624;-96.938;2022-08-11T02:30:11;99209.78;;;27.37;100.00
17772;BME280;9010;32.624;-96.938;2022-08-11T02:32:49;99207.59;;;27.41;100.00
17772;BME280;9010;32.624;-96.938;2022-08-11T02:35:41;99220.97;;;27.34;100.00
17772;BME280;9010;32.624;-96.938;2022-08-11T02:38:20;99236.59;;;27.39;100.00
17772;BME280;9010;32.624;-96.938;2022-08-11T02:41:00;99240.72;;;27.35;100.00
17772;BME280;9010;32.624;-96.938;2022-08-11T02:44:04;99242.56;;;27.34;100.00
17772;BME280;9010;32.624;-96.938;2022-08-11T02:46:45;99248.44;;;27.38;100.00
17772;BME280;9010;32.624;-96.938;2022-08-11T02:49:32;99260.91;;;27.39;100.00
17772;BME280;9010;32.624;-96.938;2022-08-11T02:52:29;99242.84;;;27.39;100.00
17772;BME280;9010;32.624;-96.938;2022-08-11T02:55:17;99261.41;;;27.43;100.00
17772;BME280;9010;32.624;-96.938;2022-08-11T02:57:53;99255.63;;;27.46;100.00
17772;BME280;9010;32.624;-96.938;2022-08-11T03:00:26;99261.88;;;27.46;100.00
17772;BME280;9010;32.624;-96.938;2022-08-11T03:03:11;99263.56;;;27.47;100.00
17772;BME280;9010;32.624;-96.938;2022-08-11T03:05:54;99276.03;;;27.48;100.00
17772;BME280;9010;32.624;-96.938;2022-08-11T03:08:44;99278.38;;;27.51;100.00
17772;BME280;9010;32.624;-96.938;2022-08-11T03:11:25;99286.94;;;27.55;100.00
17772;BME280;9010;32.624;-96.938;2022-08-11T03:14:24;99293.72;;;27.51;100.00
17772;BME280;9010;32.624;-96.938;2022-08-11T03:17:27;99292.72;;;27.52;100.00
17772;BME280;9010;32.624;-96.938;2022-08-11T03:20:07;99296.78;;;27.48;100.00
17772;BME280;9010;32.624;-96.938;2022-08-11T03:22:49;99288.06;;;27.46;100.00
17772;BME280;9010;32.624;-96.938;2022-08-11T03:25:29;99284.34;;;27.47;100.00
17772;BME280;9010;32.624;-96.938;2022-08-11T03:28:08;99281.38;;;27.42;100.00
17772;BME280;9010;32.624;-96.938;2022-08-11T03:30:50;99293.81;;;27.43;100.00
17772;BME280;9010;32.624;-96.938;2022-08-11T03:33:23;99302.13;;;27.41;100.00
17772;BME280;9010;32.624;-96.938;2022-08-11T03:36:14;99309.19;;;27.42;100.00
17772;BME280;9010;32.624;-96.938;2022-08-11T03:39:00;99311.41;;;27.38;100.00
17772;BME280;9010;32.624;-96.938;2022-08-11T03:41:36;99308.72;;;27.38;100.00
17772;BME280;9010;32.624;-96.938;2022-08-11T03:44:23;99314.13;;;27.38;100.00
17772;BME280;9010;32.624;-96.938;2022-08-11T03:47:13;99319.50;;;27.38;100.00
17772;BME280;9010;32.624;-96.938;2022-08-11T03:49:56;99330.22;;;27.32;100.00
17772;BME280;9010;32.624;-96.938;2022-08-11T03:52:47;99333.44;;;27.27;100.00
17772;BME280;9010;32.624;-96.938;2022-08-11T03:58:34;99348.63;;;27.28;100.00
17772;BME280;9010;32.624;-96.938;2022-08-11T04:07:47;99355.44;;;27.39;100.00
17772;BME280;9010;32.624;-96.938;2022-08-11T04:10:36;99361.78;;;27.31;100.00
17772;BME280;9010;32.624;-96.938;2022-08-11T04:13:21;99358.44;;;27.29;100.00
17772;BME280;9010;32.624;-96.938;2022-08-11T04:16:23;99361.56;;;27.18;100.00
17772;BME280;9010;32.624;-96.938;2022-08-11T04:22:38;99363.38;;;27.03;100.00
17772;BME280;9010;32.624;-96.938;2022-08-11T04:25:29;99364.75;;;26.99;100.00
17772;BME280;9010;32.624;-96.938;2022-08-11T04:28:26;99359.44;;;26.91;100.00
17772;BME280;9010;32.624;-96.938;2022-08-11T04:37:34;99352.09;;;26.54;100.00
17772;BME280;9010;32.624;-96.938;2022-08-11T04:40:17;99344.72;;;26.48;100.00
17772;BME280;9010;32.624;-96.938;2022-08-11T04:43:30;99337.13;;;26.52;100.00
17772;BME280;9010;32.624;-96.938;2022-08-11T04:46:26;99347.66;;;26.39;100.00
17772;BME280;9010;32.624;-96.938;2022-08-11T04:49:24;99344.41;;;26.43;100.00
17772;BME280;9010;32.624;-96.938;2022-08-11T04:56:08;99355.00;;;26.22;100.00
17772;BME280;9010;32.624;-96.938;2022-08-11T04:59:31;99363.13;;;26.06;100.00
17772;BME280;9010;32.624;-96.938;2022-08-11T05:05:22;99377.31;;;26.00;100.00
17772;BME280;9010;32.624;-96.938;2022-08-11T05:08:27;99374.00;;;25.90;100.00
17772;BME280;9010;32.624;-96.938;2022-08-11T05:11:18;99376.19;;;25.86;100.00
17772;BME280;9010;32.624;-96.938;2022-08-11T05:17:35;99389.00;;;25.84;100.00
17772;BME280;9010;32.624;-96.938;2022-08-11T05:20:21;99401.47;;;25.85;100.00
17772;BME280;9010;32.624;-96.938;2022-08-11T05:23:10;99392.53;;;25.85;100.00
17772;BME280;9010;32.624;-96.938;2022-08-11T05:25:58;99391.38;;;25.79;100.00
17772;BME280;9010;32.624;-96.938;2022-08-11T05:28:51;99399.69;;;25.61;100.00
17772;BME280;9010;32.624;-96.938;2022-08-11T05:31:40;99392.09;;;25.65;100.00
17772;BME280;9010;32.624;-96.938;2022-08-11T05:34:29;99387.88;;;25.54;100.00
17772;BME280;9010;32.624;-96.938;2022-08-11T05:40:10;99387.06;;;25.54;100.00
17772;BME280;9010;32.624;-96.938;2022-08-11T05:42:58;99388.09;;;25.53;100.00
17772;BME280;9010;32.624;-96.938;2022-08-11T05:45:55;99392.97;;;25.49;100.00
17772;BME280;9010;32.624;-96.938;2022-08-11T05:48:41;99400.88;;;25.51;100.00
17772;BME280;9010;32.624;-96.938;2022-08-11T05:51:33;99403.72;;;25.49;100.00
17772;BME280;9010;32.624;-96.938;2022-08-11T05:54:19;99395.84;;;25.48;100.00
17772;BME280;9010;32.624;-96.938;2022-08-11T05:57:05;99400.19;;;25.41;100.00
17772;BME280;9010;32.624;-96.938;2022-08-11T05:59:34;99391.09;;;25.42;100.00
17772;BME280;9010;32.624;-96.938;2022-08-11T06:02:05;99392.47;;;25.30;100.00
17772;BME280;9010;32.624;-96.938;2022-08-11T06:04:34;99387.41;;;25.27;100.00
17772;BME280;9010;32.624;-96.938;2022-08-11T06:07:06;99388.44;;;25.26;100.00
17772;BME280;9010;32.624;-96.938;2022-08-11T06:09:36;99386.44;;;25.20;100.00
17772;BME280;9010;32.624;-96.938;2022-08-11T06:12:07;99380.53;;;25.24;100.00
17772;BME280;9010;32.624;-96.938;2022-08-11T06:14:41;99372.94;;;25.28;100.00
17772;BME280;9010;32.624;-96.938;2022-08-11T06:17:12;99374.78;;;25.35;100.00
17772;BME280;9010;32.624;-96.938;2022-08-11T06:19:42;99364.34;;;25.32;100.00
17772;BME280;9010;32.624;-96.938;2022-08-11T06:22:19;99366.19;;;25.32;100.00
17772;BME280;9010;32.624;-96.938;2022-08-11T06:24:52;99364.84;;;25.36;100.00
17772;BME280;9010;32.624;-96.938;2022-08-11T06:27:23;99357.47;;;25.30;100.00
17772;BME280;9010;32.624;-96.938;2022-08-11T06:29:52;99365.22;;;25.25;100.00
17772;BME280;9010;32.624;-96.938;2022-08-11T06:32:25;99368.56;;;25.27;100.00
17772;BME280;9010;32.624;-96.938;2022-08-11T06:35:17;99364.19;;;25.34;100.00
17772;BME280;9010;32.624;-96.938;2022-08-11T06:37:57;99357.44;;;25.38;100.00
17772;BME280;9010;32.624;-96.938;2022-08-11T06:40:34;99345.34;;;25.34;100.00
17772;BME280;9010;32.624;-96.938;2022-08-11T06:43:11;99351.91;;;25.31;100.00
17772;BME280;9010;32.624;-96.938;2022-08-11T06:45:52;99357.13;;;25.25;100.00
17772;BME280;9010;32.624;-96.938;2022-08-11T06:48:24;99351.94;;;25.15;100.00
17772;BME280;9010;32.624;-96.938;2022-08-11T06:50:56;99350.75;;;25.17;100.00
17772;BME280;9010;32.624;-96.938;2022-08-11T06:53:43;99347.72;;;25.12;100.00
17772;BME280;9010;32.624;-96.938;2022-08-11T06:56:13;99334.13;;;25.14;100.00
17772;BME280;9010;32.624;-96.938;2022-08-11T06:58:59;99329.56;;;25.14;100.00
17772;BME280;9010;32.624;-96.938;2022-08-11T07:01:53;99333.28;;;25.13;100.00
17772;BME280;9010;32.624;-96.938;2022-08-11T07:04:30;99327.22;;;25.11;100.00
17772;BME280;9010;32.624;-96.938;2022-08-11T07:10:42;99329.72;;;25.13;100.00
17772;BME280;9010;32.624;-96.938;2022-08-11T07:13:32;99331.09;;;25.17;100.00
17772;BME280;9010;32.624;-96.938;2022-08-11T07:16:24;99329.56;;;25.14;100.00
17772;BME280;9010;32.624;-96.938;2022-08-11T07:19:01;99323.50;;;25.12;100.00
17772;BME280;9010;32.624;-96.938;2022-08-11T07:21:49;99322.31;;;25.15;100.00
17772;BME280;9010;32.624;-96.938;2022-08-11T07:24:38;99313.41;;;25.14;100.00
17772;BME280;9010;32.624;-96.938;2022-08-11T07:27:26;99315.09;;;25.15;100.00
17772;BME280;9010;32.624;-96.938;2022-08-11T07:30:12;99317.63;;;25.17;100.00
17772;BME280;9010;32.624;-96.938;2022-08-11T07:32:46;99320.31;;;25.17;100.00
17772;BME280;9010;32.624;-96.938;2022-08-11T07:35:19;99325.19;;;25.22;100.00
17772;BME280;9010;32.624;-96.938;2022-08-11T07:37:55;99330.56;;;25.22;100.00
17772;BME280;9010;32.624;-96.938;2022-08-11T07:40:24;99327.22;;;25.20;100.00
17772;BME280;9010;32.624;-96.938;2022-08-11T07:42:54;99327.56;;;25.17;100.00
17772;BME280;9010;32.624;-96.938;2022-08-11T07:45:23;99328.72;;;25.14;100.00
17772;BME280;9010;32.624;-96.938;2022-08-11T07:48:10;99331.44;;;25.14;100.00
17772;BME280;9010;32.624;-96.938;2022-08-11T07:50:56;99324.88;;;25.08;100.00
17772;BME280;9010;32.624;-96.938;2022-08-11T07:53:44;99328.56;;;25.07;100.00
17772;BME280;9010;32.624;-96.938;2022-08-11T07:56:13;99317.47;;;25.10;100.00
17772;BME280;9010;32.624;-96.938;2022-08-11T07:58:45;99315.78;;;25.09;100.00
17772;BME280;9010;32.624;-96.938;2022-08-11T08:01:30;99324.16;;;25.14;100.00
17772;BME280;9010;32.624;-96.938;2022-08-11T08:04:16;99324.00;;;25.16;100.00
17772;BME280;9010;32.624;-96.938;2022-08-11T08:07:03;99330.25;;;25.17;100.00
17772;BME280;9010;32.624;-96.938;2022-08-11T08:09:50;99326.72;;;25.16;100.00
17772;BME280;9010;32.624;-96.938;2022-08-11T08:12:37;99322.84;;;25.10;100.00
17772;BME280;9010;32.624;-96.938;2022-08-11T08:15:24;99328.56;;;25.07;100.00
17772;BME280;9010;32.624;-96.938;2022-08-11T08:18:10;99327.56;;;25.08;100.00
17772;BME280;9010;32.624;-96.938;2022-08-11T08:20:43;99337.31;;;25.09;100.00
17772;BME280;9010;32.624;-96.938;2022-08-11T08:23:12;99334.47;;;25.11;100.00
17772;BME280;9010;32.624;-96.938;2022-08-11T08:25:43;99345.56;;;25.08;100.00
17772;BME280;9010;32.624;-96.938;2022-08-11T08:28:14;99340.50;;;25.05;100.00
17772;BME280;9010;32.624;-96.938;2022-08-11T08:30:43;99345.06;;;25.04;100.00
17772;BME280;9010;32.624;-96.938;2022-08-11T08:33:18;99342.88;;;25.00;100.00
17772;BME280;9010;32.624;-96.938;2022-08-11T08:35:48;99336.66;;;24.99;100.00
17772;BME280;9010;32.624;-96.938;2022-08-11T08:38:37;99340.00;;;25.01;100.00
17772;BME280;9010;32.624;-96.938;2022-08-11T08:41:08;99338.81;;;25.04;100.00
17772;BME280;9010;32.624;-96.938;2022-08-11T08:43:37;99336.13;;;25.04;100.00
17772;BME280;9010;32.624;-96.938;2022-08-11T08:46:08;99330.75;;;25.04;100.00
17772;BME280;9010;32.624;-96.938;2022-08-11T08:48:37;99331.59;;;25.04;100.00
17772;BME280;9010;32.624;-96.938;2022-08-11T08:51:10;99335.97;;;25.05;100.00
17772;BME280;9010;32.624;-96.938;2022-08-11T08:53:59;99332.44;;;25.05;100.00
17772;BME280;9010;32.624;-96.938;2022-08-11T08:56:33;99339.66;;;25.04;100.00
17772;BME280;9010;32.624;-96.938;2022-08-11T08:59:03;99337.81;;;25.05;100.00
17772;BME280;9010;32.624;-96.938;2022-08-11T09:01:36;99328.91;;;25.04;100.00
17772;BME280;9010;32.624;-96.938;2022-08-11T09:04:07;99334.47;;;25.03;100.00
17772;BME280;9010;32.624;-96.938;2022-08-11T09:06:37;99337.00;;;24.96;100.00
17772;BME280;9010;32.624;-96.938;2022-08-11T09:09:10;99333.44;;;24.96;100.00
17772;BME280;9010;32.624;-96.938;2022-08-11T09:11:41;99335.63;;;24.92;100.00
17772;BME280;9010;32.624;-96.938;2022-08-11T09:14:23;99326.72;;;24.92;100.00
17772;BME280;9010;32.624;-96.938;2022-08-11T09:17:12;99326.91;;;24.90;100.00
17772;BME280;9010;32.624;-96.938;2022-08-11T09:19:41;99326.72;;;24.92;100.00
17772;BME280;9010;32.624;-96.938;2022-08-11T09:22:09;99320.34;;;24.93;100.00
17772;BME280;9010;32.624;-96.938;2022-08-11T09:24:55;99324.88;;;24.92;100.00
17772;BME280;9010;32.624;-96.938;2022-08-11T09:27:43;99321.53;;;24.90;100.00
17772;BME280;9010;32.624;-96.938;2022-08-11T09:30:12;99310.75;;;24.90;100.00
17772;BME280;9010;32.624;-96.938;2022-08-11T09:32:40;99319.16;;;24.95;100.00
17772;BME280;9010;32.624;-96.938;2022-08-11T09:35:09;99315.47;;;24.96;100.00
17772;BME280;9010;32.624;-96.938;2022-08-11T09:37:38;99316.31;;;24.97;100.00
17772;BME280;9010;32.624;-96.938;2022-08-11T09:40:24;99317.16;;;24.97;100.00
17772;BME280;9010;32.624;-96.938;2022-08-11T09:42:58;99321.16;;;25.01;100.00
17772;BME280;9010;32.624;-96.938;2022-08-11T09:45:46;99323.00;;;25.01;100.00
17772;BME280;9010;32.624;-96.938;2022-08-11T09:48:17;99315.63;;;25.03;100.00
17772;BME280;9010;32.624;-96.938;2022-08-11T09:50:48;99306.88;;;25.01;100.00
17772;BME280;9010;32.624;-96.938;2022-08-11T09:53:18;99313.09;;;25.01;100.00
17772;BME280;9010;32.624;-96.938;2022-08-11T09:55:47;99313.09;;;25.01;100.00
17772;BME280;9010;32.624;-96.938;2022-08-11T09:58:18;99316.44;;;25.03;100.00
17772;BME280;9010;32.624;-96.938;2022-08-11T10:00:48;99311.59;;;24.99;100.00
17772;BME280;9010;32.624;-96.938;2022-08-11T10:03:19;99308.56;;;25.02;100.00
17772;BME280;9010;32.624;-96.938;2022-08-11T10:05:49;99314.09;;;25.00;100.00
17772;BME280;9010;32.624;-96.938;2022-08-11T10:08:36;99311.41;;;25.00;100.00
17772;BME280;9010;32.624;-96.938;2022-08-11T10:11:09;99311.41;;;25.00;100.00
17772;BME280;9010;32.624;-96.938;2022-08-11T10:13:43;99312.25;;;24.93;100.00
17772;BME280;9010;32.624;-96.938;2022-08-11T10:16:34;99305.38;;;24.90;100.00
17772;BME280;9010;32.624;-96.938;2022-08-11T10:19:05;99309.06;;;24.89;100.00
17772;BME280;9010;32.624;-96.938;2022-08-11T10:21:37;99307.56;;;24.87;100.00
17772;BME280;9010;32.624;-96.938;2022-08-11T10:24:07;99308.59;;;24.86;100.00
17772;BME280;9010;32.624;-96.938;2022-08-11T10:26:55;99315.50;;;24.80;100.00
17772;BME280;9010;32.624;-96.938;2022-08-11T10:29:29;99309.91;;;24.82;100.00
17772;BME280;9010;32.624;-96.938;2022-08-11T10:32:19;99313.75;;;24.79;100.00
17772;BME280;9010;32.624;-96.938;2022-08-11T10:35:05;99315.28;;;24.74;100.00
17772;BME280;9010;32.624;-96.938;2022-08-11T10:37:35;99322.69;;;24.72;100.00
17772;BME280;9010;32.624;-96.938;2022-08-11T10:40:05;99316.13;;;24.66;100.00
17772;BME280;9010;32.624;-96.938;2022-08-11T10:42:34;99316.13;;;24.66;100.00
17772;BME280;9010;32.624;-96.938;2022-08-11T10:45:23;99329.91;;;24.63;100.00
17772;BME280;9010;32.624;-96.938;2022-08-11T10:48:09;99323.84;;;24.61;100.00
17772;BME280;9010;32.624;-96.938;2022-08-11T10:50:38;99323.16;;;24.59;100.00
17772;BME280;9010;32.624;-96.938;2022-08-11T10:53:23;99328.88;;;24.56;100.00
17772;BME280;9010;32.624;-96.938;2022-08-11T10:56:09;99335.63;;;24.60;100.00
17772;BME280;9010;32.624;-96.938;2022-08-11T10:58:56;99333.59;;;24.62;100.00
17772;BME280;9010;32.624;-96.938;2022-08-11T11:01:30;99335.28;;;24.63;100.00
17772;BME280;9010;32.624;-96.938;2022-08-11T11:04:01;99336.63;;;24.67;100.00
17772;BME280;9010;32.624;-96.938;2022-08-11T11:06:34;99333.59;;;24.70;100.00
17772;BME280;9010;32.624;-96.938;2022-08-11T11:09:13;99328.53;;;24.75;100.00
17772;BME280;9010;32.624;-96.938;2022-08-11T11:11:47;99333.78;;;24.77;100.00
17772;BME280;9010;32.624;-96.938;2022-08-11T11:14:35;99337.00;;;24.80;100.00
17772;BME280;9010;32.624;-96.938;2022-08-11T11:17:27;99344.03;;;24.81;100.00
17772;BME280;9010;32.624;-96.938;2022-08-11T11:20:15;99340.66;;;24.79;100.00
17772;BME280;9010;32.624;-96.938;2022-08-11T11:22:44;99340.34;;;24.82;100.00
17772;BME280;9010;32.624;-96.938;2022-08-11T11:25:35;99338.31;;;24.84;100.00
17772;BME280;9010;32.624;-96.938;2022-08-11T11:28:33;99341.19;;;24.83;100.00
17772;BME280;9010;32.624;-96.938;2022-08-11T11:31:16;99337.81;;;24.81;100.00
17772;BME280;9010;32.624;-96.938;2022-08-11T11:34:05;99338.66;;;24.81;100.00
17772;BME280;9010;32.624;-96.938;2022-08-11T11:36:45;99342.38;;;24.80;100.00
17772;BME280;9010;32.624;-96.938;2022-08-11T11:39:17;99344.22;;;24.80;100.00
17772;BME280;9010;32.624;-96.938;2022-08-11T11:41:48;99342.69;;;24.77;100.00
17772;BME280;9010;32.624;-96.938;2022-08-11T11:44:17;99347.38;;;24.75;100.00
17772;BME280;9010;32.624;-96.938;2022-08-11T11:46:45;99357.13;;;24.76;100.00
17772;BME280;9010;32.624;-96.938;2022-08-11T11:49:17;99353.78;;;24.74;100.00
17772;BME280;9010;32.624;-96.938;2022-08-11T11:51:46;99355.78;;;24.72;100.00
17772;BME280;9010;32.624;-96.938;2022-08-11T11:54:22;99359.81;;;24.68;100.00
17772;BME280;9010;32.624;-96.938;2022-08-11T11:56:52;99356.78;;;24.63;100.00
17772;BME280;9010;32.624;-96.938;2022-08-11T11:59:23;99352.75;;;24.67;100.00
17772;BME280;9010;32.624;-96.938;2022-08-11T12:02:12;99349.22;;;24.58;100.00
17772;BME280;9010;32.624;-96.938;2022-08-11T12:04:43;99353.75;;;24.58;100.00
17772;BME280;9010;32.624;-96.938;2022-08-11T12:07:13;99337.78;;;24.48;100.00
17772;BME280;9010;32.624;-96.938;2022-08-11T12:09:58;99360.16;;;24.65;100.00
17772;BME280;9010;32.624;-96.938;2022-08-11T12:12:27;99363.84;;;24.64;100.00
17772;BME280;9010;32.624;-96.938;2022-08-11T12:15:14;99362.84;;;24.57;100.00
17772;BME280;9010;32.624;-96.938;2022-08-11T12:17:44;99364.00;;;24.54;100.00
17772;BME280;9010;32.624;-96.938;2022-08-11T12:20:16;99359.44;;;24.55;100.00
17772;BME280;9010;32.624;-96.938;2022-08-11T12:22:46;99357.78;;;24.54;100.00
17772;BME280;9010;32.624;-96.938;2022-08-11T12:25:33;99356.09;;;24.53;100.00
17772;BME280;9010;32.624;-96.938;2022-08-11T12:28:19;99354.06;;;24.55;100.00
17772;BME280;9010;32.624;-96.938;2022-08-11T12:30:48;99357.47;;;24.57;100.00
17772;BME280;9010;32.624;-96.938;2022-08-11T12:33:18;99364.50;;;24.58;100.00
17772;BME280;9010;32.624;-96.938;2022-08-11T12:35:55;99368.22;;;24.57;100.00
17772;BME280;9010;32.624;-96.938;2022-08-11T12:38:25;99374.09;;;24.61;100.00
17772;BME280;9010;32.624;-96.938;2022-08-11T12:40:54;99361.84;;;24.66;100.00
17772;BME280;9010;32.624;-96.938;2022-08-11T12:43:44;99364.03;;;24.71;100.00
17772;BME280;9010;32.624;-96.938;2022-08-11T12:46:33;99369.06;;;24.74;100.00
17772;BME280;9010;32.624;-96.938;2022-08-11T12:49:09;99360.50;;;24.78;100.00
17772;BME280;9010;32.624;-96.938;2022-08-11T12:52:01;99363.06;;;24.88;100.00
17772;BME280;9010;32.624;-96.938;2022-08-11T12:54:33;99371.44;;;25.01;100.00
17772;BME280;9010;32.624;-96.938;2022-08-11T12:57:05;99360.53;;;25.10;100.00
17772;BME280;9010;32.624;-96.938;2022-08-11T12:59:54;99356.13;;;25.17;100.00
17772;BME280;9010;32.624;-96.938;2022-08-11T13:02:40;99360.50;;;25.27;100.00
17772;BME280;9010;32.624;-96.938;2022-08-11T13:05:26;99372.28;;;25.34;100.00
17772;BME280;9010;32.624;-96.938;2022-08-11T13:07:56;99366.38;;;25.38;100.00
17772;BME280;9010;32.624;-96.938;2022-08-11T13:10:24;99360.13;;;25.46;100.00
17772;BME280;9010;32.624;-96.938;2022-08-11T13:13:07;99360.81;;;25.56;100.00
17772;BME280;9010;32.624;-96.938;2022-08-11T13:15:36;99367.66;;;25.66;100.00
17772;BME280;9010;32.624;-96.938;2022-08-11T13:18:05;99366.47;;;25.69;100.00
17772;BME280;9010;32.624;-96.938;2022-08-11T13:20:34;99366.63;;;25.76;100.00
17772;BME280;9010;32.624;-96.938;2022-08-11T13:23:05;99363.06;;;25.83;100.00
17772;BME280;9010;32.624;-96.938;2022-08-11T13:25:34;99351.53;;;25.97;100.00
17772;BME280;9010;32.624;-96.938;2022-08-11T13:28:02;99360.28;;;26.07;100.00
17772;BME280;9010;32.624;-96.938;2022-08-11T13:30:31;99355.53;;;26.17;100.00
17772;BME280;9010;32.624;-96.938;2022-08-11T13:33:19;99356.16;;;26.27;100.00
17772;BME280;9010;32.624;-96.938;2022-08-11T13:35:50;99363.66;;;26.40;100.00
17772;BME280;9010;32.624;-96.938;2022-08-11T13:38:23;99361.75;;;26.49;100.00
17772;BME280;9010;32.624;-96.938;2022-08-11T13:40:53;99368.13;;;26.56;100.00
17772;BME280;9010;32.624;-96.938;2022-08-11T13:43:23;99369.75;;;26.65;100.00
17772;BME280;9010;32.624;-96.938;2022-08-11T13:45:52;99370.41;;;26.67;100.00
17772;BME280;9010;32.624;-96.938;2022-08-11T13:48:42;99372.03;;;26.76;100.00
17772;BME280;9010;32.624;-96.938;2022-08-11T13:51:11;99369.28;;;26.84;100.00
17772;BME280;9010;32.624;-96.938;2022-08-11T13:54:03;99379.00;;;26.93;100.00
17772;BME280;9010;32.624;-96.938;2022-08-11T13:56:32;99376.25;;;27.01;100.00
17772;BME280;9010;32.624;-96.938;2022-08-11T13:59:02;99375.16;;;27.10;100.00
17772;BME280;9010;32.624;-96.938;2022-08-11T14:01:33;99378.97;;;27.16;100.00
17772;BME280;9010;32.624;-96.938;2022-08-11T14:04:08;99380.75;;;27.23;100.00
17772;BME280;9010;32.624;-96.938;2022-08-11T14:06:38;99384.59;;;27.29;100.00
17772;BME280;9010;32.624;-96.938;2022-08-11T14:09:10;99378.44;;;27.35;100.00
17772;BME280;9010;32.624;-96.938;2022-08-11T14:11:40;99382.28;;;27.40;100.00
17772;BME280;9010;32.624;-96.938;2022-08-11T14:14:31;99384.56;;;27.52;100.00
17772;BME280;9010;32.624;-96.938;2022-08-11T14:17:04;99386.53;;;27.58;100.00
17772;BME280;9010;32.624;-96.938;2022-08-11T14:19:38;99389.78;;;27.68;100.00
17772;BME280;9010;32.624;-96.938;2022-08-11T14:22:07;99388.19;;;27.73;100.00
17772;BME280;9010;32.624;-96.938;2022-08-11T14:24:38;99383.91;;;27.79;100.00
17772;BME280;9010;32.624;-96.938;2022-08-11T14:27:08;99393.88;;;27.93;100.00
17772;BME280;9010;32.624;-96.938;2022-08-11T14:29:39;99396.13;;;28.04;100.00
17772;BME280;9010;32.624;-96.938;2022-08-11T14:32:10;99394.94;;;28.07;100.00
17772;BME280;9010;32.624;-96.938;2022-08-11T14:34:41;99387.72;;;28.28;100.00
17772;BME280;9010;32.624;-96.938;2022-08-11T14:37:11;99390.91;;;28.32;100.00
17772;BME280;9010;32.624;-96.938;2022-08-11T14:39:43;99390.31;;;28.36;100.00
17772;BME280;9010;32.624;-96.938;2022-08-11T14:42:14;99389.94;;;28.39;100.00
17772;BME280;9010;32.624;-96.938;2022-08-11T14:44:58;99390.56;;;28.41;100.00